sensor_id;sensor_type;location;lat;lon;timestamp;P1;durP1;ratioP1;P2;durP2;ratioP2
10005;SDS011;5042;42.626;23.382;2022-08-11T00:01:05;3.35;;;2.90;;
10005;SDS011;5042;42.626;23.382;2022-08-11T00:03:36;3.35;;;3.05;;
10005;SDS011;5042;42.626;23.382;2022-08-11T00:06:08;3.00;;;2.70;;
10005;SDS011;5042;42.626;23.382;2022-08-11T00:08:38;3.20;;;2.90;;
10005;SDS011;5042;42.626;23.382;2022-08-11T00:11:06;2.80;;;2.60;;
10005;SDS011;5042;42.626;23.382;2022-08-11T00:13:37;3.30;;;3.00;;
10005;SDS011;5042;42.626;23.382;2022-08-11T00:16:11;2.92;;;2.72;;
10005;SDS011;5042;42.626;23.382;2022-08-11T00:18:41;3.38;;;3.08;;
10005;SDS011;5042;42.626;23.382;2022-08-11T00:21:09;3.20;;;2.90;;
10005;SDS011;5042;42.626;23.382;2022-08-11T00:23:40;4.18;;;3.20;;
10005;SDS011;5042;42.626;23.382;2022-08-11T00:26:09;3.28;;;3.03;;
10005;SDS011;5042;42.626;23.382;2022-08-11T00:28:37;2.95;;;2.67;;
10005;SDS011;5042;42.626;23.382;2022-08-11T00:31:06;3.13;;;2.83;;
10005;SDS011;5042;42.626;23.382;2022-08-11T00:33:38;2.95;;;2.75;;
10005;SDS011;5042;42.626;23.382;2022-08-11T00:36:07;3.33;;;3.03;;
10005;SDS011;5042;42.626;23.382;2022-08-11T00:38:36;3.00;;;2.80;;
10005;SDS011;5042;42.626;23.382;2022-08-11T00:41:17;3.20;;;3.00;;
10005;SDS011;5042;42.626;23.382;2022-08-11T00:44:09;3.63;;;3.33;;
10005;SDS011;5042;42.626;23.382;2022-08-11T00:46:50;3.08;;;2.80;;
10005;SDS011;5042;42.626;23.382;2022-08-11T00:49:33;3.15;;;2.85;;
10005;SDS011;5042;42.626;23.382;2022-08-11T00:52:09;3.20;;;2.92;;
10005;SDS011;5042;42.626;23.382;2022-08-11T01:01:07;3.15;;;2.95;;
10005;SDS011;5042;42.626;23.382;2022-08-11T01:03:46;2.95;;;2.72;;
10005;SDS011;5042;42.626;23.382;2022-08-11T01:06:40;3.13;;;2.92;;
10005;SDS011;5042;42.626;23.382;2022-08-11T01:09:29;3.80;;;3.00;;
10005;SDS011;5042;42.626;23.382;2022-08-11T01:12:14;3.20;;;3.00;;
10005;SDS011;5042;42.626;23.382;2022-08-11T01:15:16;3.47;;;2.97;;
10005;SDS011;5042;42.626;23.382;2022-08-11T01:18:16;3.70;;;2.88;;
10005;SDS011;5042;42.626;23.382;2022-08-11T01:21:18;3.85;;;3.22;;
10005;SDS011;5042;42.626;23.382;2022-08-11T01:40:39;4.47;;;4.10;;
10005;SDS011;5042;42.626;23.382;2022-08-11T01:46:52;3.88;;;3.38;;
10005;SDS011;5042;42.626;23.382;2022-08-11T01:49:34;4.07;;;3.30;;
10005;SDS011;5042;42.626;23.382;2022-08-11T01:52:07;3.50;;;3.20;;
10005;SDS011;5042;42.626;23.382;2022-08-11T01:54:41;4.30;;;3.25;;
10005;SDS011;5042;42.626;23.382;2022-08-11T01:57:19;3.50;;;3.20;;
10005;SDS011;5042;42.626;23.382;2022-08-11T01:59:59;3.47;;;3.17;;
10005;SDS011;5042;42.626;23.382;2022-08-11T02:02:36;3.38;;;3.08;;
10005;SDS011;5042;42.626;23.382;2022-08-11T02:05:28;3.55;;;3.25;;
10005;SDS011;5042;42.626;23.382;2022-08-11T02:08:29;3.40;;;3.10;;
10005;SDS011;5042;42.626;23.382;2022-08-11T02:11:08;3.30;;;3.00;;
10005;SDS011;5042;42.626;23.382;2022-08-11T02:13:57;3.40;;;3.10;;
10005;SDS011;5042;42.626;23.382;2022-08-11T02:16:35;3.50;;;3.20;;
10005;SDS011;5042;42.626;23.382;2022-08-11T02:19:22;3.38;;;3.08;;
10005;SDS011;5042;42.626;23.382;2022-08-11T02:22:15;4.35;;;3.58;;
10005;SDS011;5042;42.626;23.382;2022-08-11T02:25:06;4.10;;;3.67;;
10005;SDS011;5042;42.626;23.382;2022-08-11T02:27:43;3.60;;;3.30;;
10005;SDS011;5042;42.626;23.382;2022-08-11T02:30:15;3.97;;;3.58;;
10005;SDS011;5042;42.626;23.382;2022-08-11T02:32:47;3.85;;;3.55;;
10005;SDS011;5042;42.626;23.382;2022-08-11T02:35:40;3.90;;;3.50;;
10005;SDS011;5042;42.626;23.382;2022-08-11T02:38:16;3.45;;;3.15;;
10005;SDS011;5042;42.626;23.382;2022-08-11T02:40:52;3.65;;;3.33;;
10005;SDS011;5042;42.626;23.382;2022-08-11T02:43:28;4.13;;;3.72;;
10005;SDS011;5042;42.626;23.382;2022-08-11T02:46:19;3.72;;;3.40;;
10005;SDS011;5042;42.626;23.382;2022-08-11T02:48:54;3.55;;;3.25;;
10005;SDS011;5042;42.626;23.382;2022-08-11T02:51:47;3.90;;;3.50;;
10005;SDS011;5042;42.626;23.382;2022-08-11T02:54:28;4.00;;;3.50;;
10005;SDS011;5042;42.626;23.382;2022-08-11T02:57:05;3.40;;;3.20;;
10005;SDS011;5042;42.626;23.382;2022-08-11T02:59:43;4.28;;;3.88;;
10005;SDS011;5042;42.626;23.382;2022-08-11T03:05:32;4.30;;;3.90;;
10005;SDS011;5042;42.626;23.382;2022-08-11T03:08:13;3.78;;;3.47;;
10005;SDS011;5042;42.626;23.382;2022-08-11T03:10:53;3.80;;;3.50;;
10005;SDS011;5042;42.626;23.382;2022-08-11T03:13:52;3.75;;;3.45;;
10005;SDS011;5042;42.626;23.382;2022-08-11T03:16:50;4.20;;;3.80;;
10005;SDS011;5042;42.626;23.382;2022-08-11T03:19:25;3.67;;;3.30;;
10005;SDS011;5042;42.626;23.382;2022-08-11T03:22:02;4.32;;;3.92;;
10005;SDS011;5042;42.626;23.382;2022-08-11T03:27:29;4.35;;;3.88;;
10005;SDS011;5042;42.626;23.382;2022-08-11T03:30:06;4.63;;;3.95;;
10005;SDS011;5042;42.626;23.382;2022-08-11T03:32:40;3.67;;;3.38;;
10005;SDS011;5042;42.626;23.382;2022-08-11T03:35:40;4.22;;;3.83;;
10005;SDS011;5042;42.626;23.382;2022-08-11T03:38:14;4.30;;;3.90;;
10005;SDS011;5042;42.626;23.382;2022-08-11T03:40:49;4.50;;;4.10;;
10005;SDS011;5042;42.626;23.382;2022-08-11T03:43:53;4.30;;;3.85;;
10005;SDS011;5042;42.626;23.382;2022-08-11T03:46:44;4.80;;;4.18;;
10005;SDS011;5042;42.626;23.382;2022-08-11T03:49:28;4.82;;;4.07;;
10005;SDS011;5042;42.626;23.382;2022-08-11T03:52:10;3.80;;;3.50;;
10005;SDS011;5042;42.626;23.382;2022-08-11T03:54:47;5.45;;;4.10;;
10005;SDS011;5042;42.626;23.382;2022-08-11T03:57:44;7.35;;;4.15;;
10005;SDS011;5042;42.626;23.382;2022-08-11T04:01:03;3.80;;;3.45;;
10005;SDS011;5042;42.626;23.382;2022-08-11T04:03:56;4.40;;;4.00;;
10005;SDS011;5042;42.626;23.382;2022-08-11T04:06:53;5.95;;;3.83;;
10005;SDS011;5042;42.626;23.382;2022-08-11T04:12:44;4.70;;;4.22;;
10005;SDS011;5042;42.626;23.382;2022-08-11T04:15:43;4.75;;;4.25;;
10005;SDS011;5042;42.626;23.382;2022-08-11T04:30:43;4.25;;;3.75;;
10005;SDS011;5042;42.626;23.382;2022-08-11T04:33:32;4.75;;;3.70;;
10005;SDS011;5042;42.626;23.382;2022-08-11T04:36:09;3.95;;;3.50;;
10005;SDS011;5042;42.626;23.382;2022-08-11T04:39:15;3.90;;;3.45;;
10005;SDS011;5042;42.626;23.382;2022-08-11T04:45:30;4.05;;;3.65;;
10005;SDS011;5042;42.626;23.382;2022-08-11T04:48:09;4.28;;;3.88;;
10005;SDS011;5042;42.626;23.382;2022-08-11T04:51:20;4.80;;;4.10;;
10005;SDS011;5042;42.626;23.382;2022-08-11T04:54:19;4.60;;;4.20;;
10005;SDS011;5042;42.626;23.382;2022-08-11T04:57:18;4.88;;;4.15;;
10005;SDS011;5042;42.626;23.382;2022-08-11T05:00:16;4.60;;;4.10;;
10005;SDS011;5042;42.626;23.382;2022-08-11T05:09:36;4.60;;;4.20;;
10005;SDS011;5042;42.626;23.382;2022-08-11T05:12:24;5.50;;;3.53;;
10005;SDS011;5042;42.626;23.382;2022-08-11T05:14:55;4.13;;;3.72;;
10005;SDS011;5042;42.626;23.382;2022-08-11T05:17:43;4.00;;;3.53;;
10005;SDS011;5042;42.626;23.382;2022-08-11T05:20:31;4.20;;;3.83;;
10005;SDS011;5042;42.626;23.382;2022-08-11T05:23:29;4.18;;;3.78;;
10005;SDS011;5042;42.626;23.382;2022-08-11T05:26:15;4.50;;;3.40;;
10005;SDS011;5042;42.626;23.382;2022-08-11T05:29:04;3.40;;;3.08;;
10005;SDS011;5042;42.626;23.382;2022-08-11T05:32:09;3.63;;;3.17;;
10005;SDS011;5042;42.626;23.382;2022-08-11T05:34:56;3.65;;;3.35;;
10005;SDS011;5042;42.626;23.382;2022-08-11T05:37:30;4.43;;;3.45;;
10005;SDS011;5042;42.626;23.382;2022-08-11T05:40:05;3.20;;;2.90;;
10005;SDS011;5042;42.626;23.382;2022-08-11T05:42:53;4.65;;;2.97;;
10005;SDS011;5042;42.626;23.382;2022-08-11T05:45:41;2.83;;;2.63;;
10005;SDS011;5042;42.626;23.382;2022-08-11T05:48:28;4.60;;;3.17;;
10005;SDS011;5042;42.626;23.382;2022-08-11T05:51:16;3.45;;;3.15;;
10005;SDS011;5042;42.626;23.382;2022-08-11T05:54:02;3.28;;;3.03;;
10005;SDS011;5042;42.626;23.382;2022-08-11T05:56:51;3.30;;;3.00;;
10005;SDS011;5042;42.626;23.382;2022-08-11T05:59:20;4.60;;;3.65;;
10005;SDS011;5042;42.626;23.382;2022-08-11T06:01:49;3.90;;;2.83;;
10005;SDS011;5042;42.626;23.382;2022-08-11T06:04:18;3.28;;;2.97;;
10005;SDS011;5042;42.626;23.382;2022-08-11T06:06:48;3.95;;;3.13;;
10005;SDS011;5042;42.626;23.382;2022-08-11T06:09:23;2.75;;;2.55;;
10005;SDS011;5042;42.626;23.382;2022-08-11T06:11:57;4.47;;;2.88;;
10005;SDS011;5042;42.626;23.382;2022-08-11T06:14:26;2.85;;;2.55;;
10005;SDS011;5042;42.626;23.382;2022-08-11T06:16:57;3.00;;;2.80;;
10005;SDS011;5042;42.626;23.382;2022-08-11T06:19:33;2.55;;;2.30;;
10005;SDS011;5042;42.626;23.382;2022-08-11T06:22:02;3.03;;;2.38;;
10005;SDS011;5042;42.626;23.382;2022-08-11T06:24:30;2.58;;;2.28;;
10005;SDS011;5042;42.626;23.382;2022-08-11T06:26:58;2.38;;;2.17;;
10005;SDS011;5042;42.626;23.382;2022-08-11T06:29:26;3.20;;;2.97;;
10005;SDS011;5042;42.626;23.382;2022-08-11T06:31:56;3.15;;;2.40;;
10005;SDS011;5042;42.626;23.382;2022-08-11T06:34:36;2.40;;;2.20;;
10005;SDS011;5042;42.626;23.382;2022-08-11T06:37:19;2.60;;;2.35;;
10005;SDS011;5042;42.626;23.382;2022-08-11T06:39:51;2.30;;;2.10;;
10005;SDS011;5042;42.626;23.382;2022-08-11T06:42:33;2.40;;;2.20;;
10005;SDS011;5042;42.626;23.382;2022-08-11T06:45:13;2.03;;;1.92;;
10005;SDS011;5042;42.626;23.382;2022-08-11T06:47:51;2.30;;;2.10;;
10005;SDS011;5042;42.626;23.382;2022-08-11T06:50:20;2.85;;;2.20;;
10005;SDS011;5042;42.626;23.382;2022-08-11T06:53:06;2.47;;;2.30;;
10005;SDS011;5042;42.626;23.382;2022-08-11T06:55:37;4.03;;;2.30;;
10005;SDS011;5042;42.626;23.382;2022-08-11T06:58:27;3.17;;;2.63;;
10005;SDS011;5042;42.626;23.382;2022-08-11T07:01:14;2.60;;;2.40;;
10005;SDS011;5042;42.626;23.382;2022-08-11T07:04:03;4.20;;;2.90;;
10005;SDS011;5042;42.626;23.382;2022-08-11T07:06:37;2.22;;;2.03;;
10005;SDS011;5042;42.626;23.382;2022-08-11T07:09:32;2.28;;;2.13;;
10005;SDS011;5042;42.626;23.382;2022-08-11T07:12:38;2.17;;;2.08;;
10005;SDS011;5042;42.626;23.382;2022-08-11T07:15:27;2.45;;;2.17;;
10005;SDS011;5042;42.626;23.382;2022-08-11T07:18:19;2.40;;;2.20;;
10005;SDS011;5042;42.626;23.382;2022-08-11T07:21:08;2.13;;;2.03;;
10005;SDS011;5042;42.626;23.382;2022-08-11T07:23:55;2.35;;;2.20;;
10005;SDS011;5042;42.626;23.382;2022-08-11T07:26:42;4.07;;;2.40;;
10005;SDS011;5042;42.626;23.382;2022-08-11T07:29:34;2.88;;;2.20;;
10005;SDS011;5042;42.626;23.382;2022-08-11T07:32:07;1.95;;;1.85;;
10005;SDS011;5042;42.626;23.382;2022-08-11T07:34:42;2.03;;;1.92;;
10005;SDS011;5042;42.626;23.382;2022-08-11T07:37:16;2.63;;;2.42;;
10005;SDS011;5042;42.626;23.382;2022-08-11T07:39:45;2.30;;;2.10;;
10005;SDS011;5042;42.626;23.382;2022-08-11T07:42:14;2.00;;;1.90;;
10005;SDS011;5042;42.626;23.382;2022-08-11T07:44:44;2.20;;;2.03;;
10005;SDS011;5042;42.626;23.382;2022-08-11T07:47:30;2.70;;;2.33;;
10005;SDS011;5042;42.626;23.382;2022-08-11T07:50:17;1.80;;;1.70;;
10005;SDS011;5042;42.626;23.382;2022-08-11T07:53:03;2.67;;;2.47;;
10005;SDS011;5042;42.626;23.382;2022-08-11T07:55:31;3.10;;;2.30;;
10005;SDS011;5042;42.626;23.382;2022-08-11T07:57:59;1.92;;;1.83;;
10005;SDS011;5042;42.626;23.382;2022-08-11T08:00:45;2.08;;;1.88;;
10005;SDS011;5042;42.626;23.382;2022-08-11T08:03:32;2.20;;;2.00;;
10005;SDS011;5042;42.626;23.382;2022-08-11T08:06:17;2.42;;;2.22;;
10005;SDS011;5042;42.626;23.382;2022-08-11T08:09:03;7.15;;;2.58;;
10005;SDS011;5042;42.626;23.382;2022-08-11T08:11:49;2.50;;;1.90;;
10005;SDS011;5042;42.626;23.382;2022-08-11T08:14:34;2.03;;;1.92;;
10005;SDS011;5042;42.626;23.382;2022-08-11T08:17:19;1.98;;;1.88;;
10005;SDS011;5042;42.626;23.382;2022-08-11T08:20:05;2.22;;;2.10;;
10005;SDS011;5042;42.626;23.382;2022-08-11T08:22:34;2.10;;;2.00;;
10005;SDS011;5042;42.626;23.382;2022-08-11T08:25:04;3.22;;;2.13;;
10005;SDS011;5042;42.626;23.382;2022-08-11T08:27:32;2.30;;;2.10;;
10005;SDS011;5042;42.626;23.382;2022-08-11T08:30:00;2.50;;;2.10;;
10005;SDS011;5042;42.626;23.382;2022-08-11T08:32:45;1.90;;;1.80;;
10005;SDS011;5042;42.626;23.382;2022-08-11T08:35:12;1.92;;;1.83;;
10005;SDS011;5042;42.626;23.382;2022-08-11T08:37:40;2.63;;;2.42;;
10005;SDS011;5042;42.626;23.382;2022-08-11T08:40:09;2.35;;;2.15;;
10005;SDS011;5042;42.626;23.382;2022-08-11T08:42:40;2.15;;;2.00;;
10005;SDS011;5042;42.626;23.382;2022-08-11T08:45:11;2.22;;;2.08;;
10005;SDS011;5042;42.626;23.382;2022-08-11T08:47:44;1.90;;;1.80;;
10005;SDS011;5042;42.626;23.382;2022-08-11T08:50:15;2.05;;;1.92;;
10005;SDS011;5042;42.626;23.382;2022-08-11T08:52:46;2.17;;;1.98;;
10005;SDS011;5042;42.626;23.382;2022-08-11T08:55:19;2.08;;;1.98;;
10005;SDS011;5042;42.626;23.382;2022-08-11T08:57:47;2.90;;;2.25;;
10005;SDS011;5042;42.626;23.382;2022-08-11T09:00:16;2.42;;;2.22;;
10005;SDS011;5042;42.626;23.382;2022-08-11T09:02:45;2.20;;;2.10;;
10005;SDS011;5042;42.626;23.382;2022-08-11T09:05:15;2.10;;;2.00;;
10005;SDS011;5042;42.626;23.382;2022-08-11T09:07:43;2.03;;;1.92;;
10005;SDS011;5042;42.626;23.382;2022-08-11T09:10:12;2.67;;;2.30;;
10005;SDS011;5042;42.626;23.382;2022-08-11T09:12:42;1.80;;;1.70;;
10005;SDS011;5042;42.626;23.382;2022-08-11T09:15:10;2.50;;;2.30;;
10005;SDS011;5042;42.626;23.382;2022-08-11T09:17:40;2.42;;;2.22;;
10005;SDS011;5042;42.626;23.382;2022-08-11T09:20:10;2.38;;;2.17;;
10005;SDS011;5042;42.626;23.382;2022-08-11T09:22:39;2.08;;;1.92;;
10005;SDS011;5042;42.626;23.382;2022-08-11T09:25:26;2.47;;;2.28;;
10005;SDS011;5042;42.626;23.382;2022-08-11T09:28:14;2.03;;;1.92;;
10005;SDS011;5042;42.626;23.382;2022-08-11T09:30:42;2.75;;;1.90;;
10005;SDS011;5042;42.626;23.382;2022-08-11T09:33:12;3.08;;;2.65;;
10005;SDS011;5042;42.626;23.382;2022-08-11T09:35:40;2.72;;;2.10;;
10005;SDS011;5042;42.626;23.382;2022-08-11T09:38:11;2.40;;;2.20;;
10005;SDS011;5042;42.626;23.382;2022-08-11T09:41:11;2.28;;;2.17;;
10005;SDS011;5042;42.626;23.382;2022-08-11T09:43:41;2.03;;;1.90;;
10005;SDS011;5042;42.626;23.382;2022-08-11T09:46:28;2.25;;;2.05;;
10005;SDS011;5042;42.626;23.382;2022-08-11T09:48:57;2.10;;;2.00;;
10005;SDS011;5042;42.626;23.382;2022-08-11T09:51:30;3.22;;;2.03;;
10005;SDS011;5042;42.626;23.382;2022-08-11T09:53:58;3.45;;;2.20;;
10005;SDS011;5042;42.626;23.382;2022-08-11T09:56:28;2.53;;;2.33;;
10005;SDS011;5042;42.626;23.382;2022-08-11T09:59:16;2.45;;;2.22;;
10005;SDS011;5042;42.626;23.382;2022-08-11T10:01:45;2.22;;;2.03;;
10005;SDS011;5042;42.626;23.382;2022-08-11T10:04:15;3.20;;;2.15;;
10005;SDS011;5042;42.626;23.382;2022-08-11T10:06:43;2.40;;;2.08;;
10005;SDS011;5042;42.626;23.382;2022-08-11T10:09:26;3.30;;;2.53;;
10005;SDS011;5042;42.626;23.382;2022-08-11T10:11:55;1.90;;;1.80;;
10005;SDS011;5042;42.626;23.382;2022-08-11T10:14:26;3.13;;;2.45;;
10005;SDS011;5042;42.626;23.382;2022-08-11T10:17:13;2.08;;;1.95;;
10005;SDS011;5042;42.626;23.382;2022-08-11T10:19:42;2.03;;;1.88;;
10005;SDS011;5042;42.626;23.382;2022-08-11T10:22:12;2.63;;;2.10;;
10005;SDS011;5042;42.626;23.382;2022-08-11T10:24:58;1.95;;;1.85;;
10005;SDS011;5042;42.626;23.382;2022-08-11T10:27:44;1.95;;;1.85;;
10005;SDS011;5042;42.626;23.382;2022-08-11T10:30:16;2.38;;;2.08;;
10005;SDS011;5042;42.626;23.382;2022-08-11T10:33:00;2.78;;;2.47;;
10005;SDS011;5042;42.626;23.382;2022-08-11T10:35:46;2.10;;;2.00;;
10005;SDS011;5042;42.626;23.382;2022-08-11T10:38:14;1.98;;;1.83;;
10005;SDS011;5042;42.626;23.382;2022-08-11T10:40:44;2.20;;;2.05;;
10005;SDS011;5042;42.626;23.382;2022-08-11T10:43:34;2.30;;;2.20;;
10005;SDS011;5042;42.626;23.382;2022-08-11T10:46:04;2.40;;;2.15;;
10005;SDS011;5042;42.626;23.382;2022-08-11T10:48:51;2.28;;;2.08;;
10005;SDS011;5042;42.626;23.382;2022-08-11T10:51:19;2.22;;;2.03;;
10005;SDS011;5042;42.626;23.382;2022-08-11T10:53:47;2.55;;;2.35;;
10005;SDS011;5042;42.626;23.382;2022-08-11T10:56:34;2.00;;;1.90;;
10005;SDS011;5042;42.626;23.382;2022-08-11T10:59:21;2.20;;;2.00;;
10005;SDS011;5042;42.626;23.382;2022-08-11T11:01:51;2.22;;;2.08;;
10005;SDS011;5042;42.626;23.382;2022-08-11T11:04:20;4.35;;;2.58;;
10005;SDS011;5042;42.626;23.382;2022-08-11T11:06:50;2.35;;;2.15;;
10005;SDS011;5042;42.626;23.382;2022-08-11T11:09:27;2.00;;;1.90;;
10005;SDS011;5042;42.626;23.382;2022-08-11T11:11:58;2.42;;;2.22;;
10005;SDS011;5042;42.626;23.382;2022-08-11T11:14:45;1.90;;;1.80;;
10005;SDS011;5042;42.626;23.382;2022-08-11T11:17:36;2.03;;;1.83;;
10005;SDS011;5042;42.626;23.382;2022-08-11T11:20:22;3.10;;;1.88;;
10005;SDS011;5042;42.626;23.382;2022-08-11T11:22:53;2.30;;;2.08;;
10005;SDS011;5042;42.626;23.382;2022-08-11T11:25:31;2.33;;;2.17;;
10005;SDS011;5042;42.626;23.382;2022-08-11T11:28:16;2.10;;;2.00;;
10005;SDS011;5042;42.626;23.382;2022-08-11T11:30:55;2.05;;;1.92;;
10005;SDS011;5042;42.626;23.382;2022-08-11T11:33:37;1.85;;;1.75;;
10005;SDS011;5042;42.626;23.382;2022-08-11T11:36:16;1.77;;;1.67;;
10005;SDS011;5042;42.626;23.382;2022-08-11T11:38:50;1.58;;;1.48;;
10005;SDS011;5042;42.626;23.382;2022-08-11T11:41:20;2.22;;;2.03;;
10005;SDS011;5042;42.626;23.382;2022-08-11T11:43:51;1.83;;;1.73;;
10005;SDS011;5042;42.626;23.382;2022-08-11T11:46:19;2.28;;;2.00;;
10005;SDS011;5042;42.626;23.382;2022-08-11T11:48:48;1.95;;;1.83;;
10005;SDS011;5042;42.626;23.382;2022-08-11T11:51:15;2.05;;;1.85;;
10005;SDS011;5042;42.626;23.382;2022-08-11T11:53:43;2.67;;;2.13;;
10005;SDS011;5042;42.626;23.382;2022-08-11T11:56:12;2.38;;;2.20;;
10005;SDS011;5042;42.626;23.382;2022-08-11T11:58:40;3.53;;;2.53;;
10005;SDS011;5042;42.626;23.382;2022-08-11T12:01:26;2.40;;;2.20;;
10005;SDS011;5042;42.626;23.382;2022-08-11T12:03:54;2.55;;;2.10;;
10005;SDS011;5042;42.626;23.382;2022-08-11T12:06:23;2.50;;;2.30;;
10005;SDS011;5042;42.626;23.382;2022-08-11T12:08:52;2.67;;;2.47;;
10005;SDS011;5042;42.626;23.382;2022-08-11T12:11:21;2.50;;;2.30;;
10005;SDS011;5042;42.626;23.382;2022-08-11T12:14:07;2.47;;;2.25;;
10005;SDS011;5042;42.626;23.382;2022-08-11T12:16:36;2.83;;;2.53;;
10005;SDS011;5042;42.626;23.382;2022-08-11T12:19:06;2.63;;;2.42;;
10005;SDS011;5042;42.626;23.382;2022-08-11T12:21:36;2.70;;;2.50;;
10005;SDS011;5042;42.626;23.382;2022-08-11T12:24:25;2.03;;;1.92;;
10005;SDS011;5042;42.626;23.382;2022-08-11T12:27:10;2.30;;;2.10;;
10005;SDS011;5042;42.626;23.382;2022-08-11T12:29:48;3.22;;;2.80;;
10005;SDS011;5042;42.626;23.382;2022-08-11T12:32:17;2.63;;;2.42;;
10005;SDS011;5042;42.626;23.382;2022-08-11T12:34:47;2.70;;;2.50;;
10005;SDS011;5042;42.626;23.382;2022-08-11T12:37:14;1.80;;;1.70;;
10005;SDS011;5042;42.626;23.382;2022-08-11T12:39:48;3.85;;;2.00;;
10005;SDS011;5042;42.626;23.382;2022-08-11T12:42:36;2.85;;;2.50;;
10005;SDS011;5042;42.626;23.382;2022-08-11T12:45:22;2.60;;;2.40;;
10005;SDS011;5042;42.626;23.382;2022-08-11T12:48:05;2.53;;;2.17;;
10005;SDS011;5042;42.626;23.382;2022-08-11T12:50:55;3.35;;;2.60;;
10005;SDS011;5042;42.626;23.382;2022-08-11T12:53:45;2.80;;;2.60;;
10005;SDS011;5042;42.626;23.382;2022-08-11T12:56:18;2.22;;;2.10;;
10005;SDS011;5042;42.626;23.382;2022-08-11T12:59:03;3.85;;;2.47;;
10005;SDS011;5042;42.626;23.382;2022-08-11T13:01:48;3.03;;;2.72;;
10005;SDS011;5042;42.626;23.382;2022-08-11T13:04:33;2.25;;;2.15;;
10005;SDS011;5042;42.626;23.382;2022-08-11T13:07:21;2.30;;;2.10;;
10005;SDS011;5042;42.626;23.382;2022-08-11T13:09:49;2.10;;;2.00;;
10005;SDS011;5042;42.626;23.382;2022-08-11T13:12:17;2.47;;;2.17;;
10005;SDS011;5042;42.626;23.382;2022-08-11T13:15:02;2.13;;;1.90;;
10005;SDS011;5042;42.626;23.382;2022-08-11T13:17:30;3.05;;;2.55;;
10005;SDS011;5042;42.626;23.382;2022-08-11T13:19:58;3.42;;;3.13;;
10005;SDS011;5042;42.626;23.382;2022-08-11T13:22:28;3.33;;;2.58;;
10005;SDS011;5042;42.626;23.382;2022-08-11T13:24:55;3.60;;;3.22;;
10005;SDS011;5042;42.626;23.382;2022-08-11T13:27:23;3.40;;;2.58;;
10005;SDS011;5042;42.626;23.382;2022-08-11T13:29:51;3.10;;;2.80;;
10005;SDS011;5042;42.626;23.382;2022-08-11T13:32:39;3.00;;;2.30;;
10005;SDS011;5042;42.626;23.382;2022-08-11T13:35:08;3.33;;;2.35;;
10005;SDS011;5042;42.626;23.382;2022-08-11T13:37:39;3.88;;;2.58;;
10005;SDS011;5042;42.626;23.382;2022-08-11T13:40:07;4.45;;;3.35;;
10005;SDS011;5042;42.626;23.382;2022-08-11T13:42:36;2.50;;;2.30;;
10005;SDS011;5042;42.626;23.382;2022-08-11T13:45:05;2.30;;;2.10;;
10005;SDS011;5042;42.626;23.382;2022-08-11T13:47:33;2.10;;;2.00;;
10005;SDS011;5042;42.626;23.382;2022-08-11T13:50:01;2.53;;;2.33;;
10005;SDS011;5042;42.626;23.382;2022-08-11T13:52:30;1.98;;;1.88;;
10005;SDS011;5042;42.626;23.382;2022-08-11T13:55:00;1.80;;;1.70;;
10005;SDS011;5042;42.626;23.382;2022-08-11T13:57:29;2.10;;;2.00;;
10005;SDS011;5042;42.626;23.382;2022-08-11T13:59:58;2.80;;;2.20;;
10005;SDS011;5042;42.626;23.382;2022-08-11T14:02:35;2.33;;;2.17;;
10005;SDS011;5042;42.626;23.382;2022-08-11T14:05:06;2.60;;;2.40;;
10005;SDS011;5042;42.626;23.382;2022-08-11T14:07:36;3.90;;;3.50;;
10005;SDS011;5042;42.626;23.382;2022-08-11T14:10:07;2.80;;;2.60;;
10005;SDS011;5042;42.626;23.382;2022-08-11T14:12:37;2.85;;;2.58;;
10005;SDS011;5042;42.626;23.382;2022-08-11T14:15:24;2.47;;;2.28;;
10005;SDS011;5042;42.626;23.382;2022-08-11T14:17:57;2.35;;;2.17;;
10005;SDS011;5042;42.626;23.382;2022-08-11T14:20:30;2.45;;;2.25;;
10005;SDS011;5042;42.626;23.382;2022-08-11T14:23:19;2.00;;;1.83;;
10005;SDS011;5042;42.626;23.382;2022-08-11T14:25:52;1.63;;;1.55;;
10005;SDS011;5042;42.626;23.382;2022-08-11T14:28:37;2.05;;;1.95;;
10005;SDS011;5042;42.626;23.382;2022-08-11T14:31:05;2.05;;;1.67;;
10005;SDS011;5042;42.626;23.382;2022-08-11T14:33:33;2.33;;;1.77;;
10005;SDS011;5042;42.626;23.382;2022-08-11T14:36:01;1.70;;;1.60;;
10005;SDS011;5042;42.626;23.382;2022-08-11T14:38:31;1.92;;;1.83;;
10005;SDS011;5042;42.626;23.382;2022-08-11T14:40:59;1.70;;;1.60;;
10005;SDS011;5042;42.626;23.382;2022-08-11T14:43:45;1.88;;;1.77;;
10005;SDS011;5042;42.626;23.382;2022-08-11T14:46:30;2.30;;;2.15;;
10005;SDS011;5042;42.626;23.382;2022-08-11T14:49:15;2.58;;;1.75;;
10005;SDS011;5042;42.626;23.382;2022-08-11T14:51:43;2.20;;;2.00;;
10005;SDS011;5042;42.626;23.382;2022-08-11T14:54:12;1.88;;;1.77;;
10005;SDS011;5042;42.626;23.382;2022-08-11T14:56:58;1.90;;;1.80;;
10005;SDS011;5042;42.626;23.382;2022-08-11T14:59:27;2.25;;;1.90;;
10005;SDS011;5042;42.626;23.382;2022-08-11T15:01:54;2.08;;;1.90;;
10005;SDS011;5042;42.626;23.382;2022-08-11T15:04:39;1.67;;;1.58;;
10005;SDS011;5042;42.626;23.382;2022-08-11T15:07:06;2.05;;;1.95;;
10005;SDS011;5042;42.626;23.382;2022-08-11T15:09:34;2.70;;;2.50;;
10005;SDS011;5042;42.626;23.382;2022-08-11T15:12:04;2.72;;;2.13;;
10005;SDS011;5042;42.626;23.382;2022-08-11T15:14:40;2.85;;;2.05;;
10005;SDS011;5042;42.626;23.382;2022-08-11T15:17:25;2.13;;;1.92;;
10005;SDS011;5042;42.626;23.382;2022-08-11T15:19:52;3.25;;;2.95;;
10005;SDS011;5042;42.626;23.382;2022-08-11T15:22:38;2.40;;;2.20;;
10005;SDS011;5042;42.626;23.382;2022-08-11T15:25:23;2.10;;;2.00;;
10005;SDS011;5042;42.626;23.382;2022-08-11T15:27:52;2.25;;;2.10;;
10005;SDS011;5042;42.626;23.382;2022-08-11T15:30:38;2.22;;;2.03;;
10005;SDS011;5042;42.626;23.382;2022-08-11T15:33:23;2.60;;;2.40;;
10005;SDS011;5042;42.626;23.382;2022-08-11T15:36:10;2.22;;;2.10;;
10005;SDS011;5042;42.626;23.382;2022-08-11T15:38:57;2.97;;;2.38;;
10005;SDS011;5042;42.626;23.382;2022-08-11T15:41:27;2.80;;;2.00;;
10005;SDS011;5042;42.626;23.382;2022-08-11T15:44:18;1.88;;;1.77;;
10005;SDS011;5042;42.626;23.382;2022-08-11T15:47:19;3.85;;;2.13;;
10005;SDS011;5042;42.626;23.382;2022-08-11T15:49:49;2.35;;;2.10;;
10005;SDS011;5042;42.626;23.382;2022-08-11T15:52:20;6.03;;;2.13;;
10005;SDS011;5042;42.626;23.382;2022-08-11T15:54:50;2.40;;;2.20;;
10005;SDS011;5042;42.626;23.382;2022-08-11T15:57:17;1.98;;;1.88;;
10005;SDS011;5042;42.626;23.382;2022-08-11T16:00:02;2.38;;;2.20;;
10005;SDS011;5042;42.626;23.382;2022-08-11T16:02:49;3.22;;;2.13;;
10005;SDS011;5042;42.626;23.382;2022-08-11T16:05:34;2.72;;;2.13;;
10005;SDS011;5042;42.626;23.382;2022-08-11T16:08:02;2.45;;;2.25;;
10005;SDS011;5042;42.626;23.382;2022-08-11T16:10:29;2.05;;;1.95;;
10005;SDS011;5042;42.626;23.382;2022-08-11T16:12:59;2.03;;;1.92;;
10005;SDS011;5042;42.626;23.382;2022-08-11T16:15:43;3.88;;;2.20;;
10005;SDS011;5042;42.626;23.382;2022-08-11T16:18:32;2.33;;;2.08;;
10005;SDS011;5042;42.626;23.382;2022-08-11T16:21:06;3.25;;;2.00;;
10005;SDS011;5042;42.626;23.382;2022-08-11T16:23:35;2.50;;;2.20;;
10005;SDS011;5042;42.626;23.382;2022-08-11T16:26:04;2.03;;;1.92;;
10005;SDS011;5042;42.626;23.382;2022-08-11T16:28:33;2.03;;;1.92;;
10005;SDS011;5042;42.626;23.382;2022-08-11T16:31:02;3.17;;;2.03;;
10005;SDS011;5042;42.626;23.382;2022-08-11T16:33:34;2.45;;;1.90;;
10005;SDS011;5042;42.626;23.382;2022-08-11T16:36:05;1.77;;;1.67;;
10005;SDS011;5042;42.626;23.382;2022-08-11T16:38:51;2.05;;;1.95;;
10005;SDS011;5042;42.626;23.382;2022-08-11T16:41:20;1.90;;;1.77;;
10005;SDS011;5042;42.626;23.382;2022-08-11T16:44:02;2.65;;;1.90;;
10005;SDS011;5042;42.626;23.382;2022-08-11T16:46:49;1.77;;;1.67;;
10005;SDS011;5042;42.626;23.382;2022-08-11T16:49:28;2.20;;;2.00;;
10005;SDS011;5042;42.626;23.382;2022-08-11T16:51:57;1.92;;;1.73;;